sensor_id;sensor_type;location;lat;lon;timestamp;temperature;humidity
52209;DHT22;38507;53.132;6.394;2023-03-01T00:01:58;-1.00;99.90
52209;DHT22;38507;53.132;6.394;2023-03-01T00:04:24;-1.00;99.90
52209;DHT22;38507;53.132;6.394;2023-03-01T00:06:50;-1.10;99.90
52209;DHT22;38507;53.132;6.394;2023-03-01T00:09:16;-1.10;99.90
52209;DHT22;38507;53.132;6.394;2023-03-01T00:11:43;-1.20;99.90
52209;DHT22;38507;53.132;6.394;2023-03-01T00:14:09;-1.20;99.90
52209;DHT22;38507;53.132;6.394;2023-03-01T00:16:39;-1.20;99.90
52209;DHT22;38507;53.132;6.394;2023-03-01T00:19:26;-1.20;99.90
52209;DHT22;38507;53.132;6.394;2023-03-01T00:21:52;-1.20;99.90
52209;DHT22;38507;53.132;6.394;2023-03-01T00:24:17;-1.20;99.90
52209;DHT22;38507;53.132;6.394;2023-03-01T00:26:43;-1.20;99.90
52209;DHT22;38507;53.132;6.394;2023-03-01T00:29:09;-1.20;99.90
52209;DHT22;38507;53.132;6.394;2023-03-01T00:31:35;-1.20;99.90
52209;DHT22;38507;53.132;6.394;2023-03-01T00:34:03;-1.30;99.90
52209;DHT22;38507;53.132;6.394;2023-03-01T00:36:32;-1.30;99.90
52209;DHT22;38507;53.132;6.394;2023-03-01T00:38:58;-1.30;99.90
52209;DHT22;38507;53.132;6.394;2023-03-01T00:41:24;-1.30;99.90
52209;DHT22;38507;53.132;6.394;2023-03-01T00:43:52;-1.30;99.90
52209;DHT22;38507;53.132;6.394;2023-03-01T00:46:20;-1.40;99.90
52209;DHT22;38507;53.132;6.394;2023-03-01T00:48:46;-1.40;99.90
52209;DHT22;38507;53.132;6.394;2023-03-01T00:51:17;-1.40;99.90
52209;DHT22;38507;53.132;6.394;2023-03-01T00:53:44;-1.40;99.90
52209;DHT22;38507;53.132;6.394;2023-03-01T00:56:12;-1.40;99.90
52209;DHT22;38507;53.132;6.394;2023-03-01T00:58:38;-1.50;99.90
52209;DHT22;38507;53.132;6.394;2023-03-01T01:01:12;-1.50;99.90
52209;DHT22;38507;53.132;6.394;2023-03-01T01:06:18;-1.60;99.90
52209;DHT22;38507;53.132;6.394;2023-03-01T01:08:44;-1.60;99.90
52209;DHT22;38507;53.132;6.394;2023-03-01T01:11:11;-1.60;99.90
52209;DHT22;38507;53.132;6.394;2023-03-01T01:13:38;-1.60;99.90
52209;DHT22;38507;53.132;6.394;2023-03-01T01:16:04;-1.70;99.90
52209;DHT22;38507;53.132;6.394;2023-03-01T01:18:30;-1.70;99.90
52209;DHT22;38507;53.132;6.394;2023-03-01T01:20:56;-1.70;99.90
52209;DHT22;38507;53.132;6.394;2023-03-01T01:23:22;-1.80;99.90
52209;DHT22;38507;53.132;6.394;2023-03-01T01:25:47;-1.90;99.90
52209;DHT22;38507;53.132;6.394;2023-03-01T01:28:13;-1.90;99.90
52209;DHT22;38507;53.132;6.394;2023-03-01T01:30:38;-1.90;99.90
52209;DHT22;38507;53.132;6.394;2023-03-01T01:33:04;-1.90;99.90
52209;DHT22;38507;53.132;6.394;2023-03-01T01:35:29;-1.90;99.90
52209;DHT22;38507;53.132;6.394;2023-03-01T01:37:55;-1.90;99.90
52209;DHT22;38507;53.132;6.394;2023-03-01T01:40:21;-2.00;99.90
52209;DHT22;38507;53.132;6.394;2023-03-01T01:42:46;-2.00;99.90
52209;DHT22;38507;53.132;6.394;2023-03-01T01:47:53;-2.10;99.90
52209;DHT22;38507;53.132;6.394;2023-03-01T01:50:19;-2.10;99.90
52209;DHT22;38507;53.132;6.394;2023-03-01T01:52:46;-2.10;99.90
52209;DHT22;38507;53.132;6.394;2023-03-01T01:55:20;-2.20;99.90
52209;DHT22;38507;53.132;6.394;2023-03-01T01:57:54;-2.10;99.90
52209;DHT22;38507;53.132;6.394;2023-03-01T02:00:27;-2.10;99.90
52209;DHT22;38507;53.132;6.394;2023-03-01T02:03:13;-2.10;99.90
52209;DHT22;38507;53.132;6.394;2023-03-01T02:08:38;-2.10;99.90
52209;DHT22;38507;53.132;6.394;2023-03-01T02:11:06;-2.00;99.90
52209;DHT22;38507;53.132;6.394;2023-03-01T02:13:33;-2.10;99.90
52209;DHT22;38507;53.132;6.394;2023-03-01T02:16:01;-2.10;99.90
52209;DHT22;38507;53.132;6.394;2023-03-01T02:18:27;-2.00;99.90
52209;DHT22;38507;53.132;6.394;2023-03-01T02:21:31;-2.10;99.90
52209;DHT22;38507;53.132;6.394;2023-03-01T02:24:22;-2.10;99.90
52209;DHT22;38507;53.132;6.394;2023-03-01T02:26:51;-2.10;99.90
52209;DHT22;38507;53.132;6.394;2023-03-01T02:29:18;-2.10;99.90
52209;DHT22;38507;53.132;6.394;2023-03-01T02:31:43;-2.10;99.90
52209;DHT22;38507;53.132;6.394;2023-03-01T02:34:16;-2.10;99.90
52209;DHT22;38507;53.132;6.394;2023-03-01T02:37:09;-2.20;99.90
52209;DHT22;38507;53.132;6.394;2023-03-01T02:39:41;-2.20;99.90
52209;DHT22;38507;53.132;6.394;2023-03-01T02:42:12;-2.20;99.90
52209;DHT22;38507;53.132;6.394;2023-03-01T02:44:38;-2.20;99.90
52209;DHT22;38507;53.132;6.394;2023-03-01T02:47:04;-2.20;99.90
52209;DHT22;38507;53.132;6.394;2023-03-01T02:49:33;-2.30;99.90
52209;DHT22;38507;53.132;6.394;2023-03-01T02:52:16;-2.30;99.90
52209;DHT22;38507;53.132;6.394;2023-03-01T02:54:56;-2.30;99.90
52209;DHT22;38507;53.132;6.394;2023-03-01T02:57:23;-2.30;99.90
52209;DHT22;38507;53.132;6.394;2023-03-01T02:59:50;-2.30;99.90
52209;DHT22;38507;53.132;6.394;2023-03-01T03:02:29;-2.40;99.90
52209;DHT22;38507;53.132;6.394;2023-03-01T03:05:13;-2.40;99.90
52209;DHT22;38507;53.132;6.394;2023-03-01T03:07:44;-2.40;99.90
52209;DHT22;38507;53.132;6.394;2023-03-01T03:10:14;-2.40;99.90
52209;DHT22;38507;53.132;6.394;2023-03-01T03:12:40;-2.50;99.90
52209;DHT22;38507;53.132;6.394;2023-03-01T03:15:08;-2.50;99.90
52209;DHT22;38507;53.132;6.394;2023-03-01T03:17:38;-2.60;99.90
52209;DHT22;38507;53.132;6.394;2023-03-01T03:20:05;-2.60;99.90
52209;DHT22;38507;53.132;6.394;2023-03-01T03:22:31;-2.70;99.90
52209;DHT22;38507;53.132;6.394;2023-03-01T03:24:59;-2.60;99.90
52209;DHT22;38507;53.132;6.394;2023-03-01T03:27:25;-2.70;99.90
52209;DHT22;38507;53.132;6.394;2023-03-01T03:29:50;-2.60;99.90
52209;DHT22;38507;53.132;6.394;2023-03-01T03:32:16;-2.70;99.90
52209;DHT22;38507;53.132;6.394;2023-03-01T03:34:42;-2.70;99.90
52209;DHT22;38507;53.132;6.394;2023-03-01T03:37:07;-2.80;99.90
52209;DHT22;38507;53.132;6.394;2023-03-01T03:39:53;-2.80;99.90
52209;DHT22;38507;53.132;6.394;2023-03-01T03:42:21;-2.80;99.90
52209;DHT22;38507;53.132;6.394;2023-03-01T03:44:48;-2.80;99.90
52209;DHT22;38507;53.132;6.394;2023-03-01T03:47:13;-2.80;99.90
52209;DHT22;38507;53.132;6.394;2023-03-01T03:49:39;-2.80;99.90
52209;DHT22;38507;53.132;6.394;2023-03-01T03:52:05;-2.70;99.90
52209;DHT22;38507;53.132;6.394;2023-03-01T03:54:39;-2.80;99.90
52209;DHT22;38507;53.132;6.394;2023-03-01T03:57:06;-2.80;99.90
52209;DHT22;38507;53.132;6.394;2023-03-01T03:59:32;-2.80;99.90
52209;DHT22;38507;53.132;6.394;2023-03-01T04:01:57;-2.80;99.90
52209;DHT22;38507;53.132;6.394;2023-03-01T04:04:23;-2.80;99.90
52209;DHT22;38507;53.132;6.394;2023-03-01T04:06:49;-2.90;99.90
52209;DHT22;38507;53.132;6.394;2023-03-01T04:09:14;-2.90;99.90
52209;DHT22;38507;53.132;6.394;2023-03-01T04:11:40;-3.00;99.90
52209;DHT22;38507;53.132;6.394;2023-03-01T04:14:05;-3.00;99.90
52209;DHT22;38507;53.132;6.394;2023-03-01T04:16:31;-3.10;99.90
52209;DHT22;38507;53.132;6.394;2023-03-01T04:18:57;-2.10;99.90
52209;DHT22;38507;53.132;6.394;2023-03-01T04:21:25;-3.10;99.90
52209;DHT22;38507;53.132;6.394;2023-03-01T04:23:51;-3.10;99.90
52209;DHT22;38507;53.132;6.394;2023-03-01T04:26:18;-3.10;99.90
52209;DHT22;38507;53.132;6.394;2023-03-01T04:28:44;-3.10;99.90
52209;DHT22;38507;53.132;6.394;2023-03-01T04:31:16;-3.20;99.90
52209;DHT22;38507;53.132;6.394;2023-03-01T04:33:48;-3.20;99.90
52209;DHT22;38507;53.132;6.394;2023-03-01T04:36:17;-3.20;99.90
52209;DHT22;38507;53.132;6.394;2023-03-01T04:38:43;-3.20;99.90
52209;DHT22;38507;53.132;6.394;2023-03-01T04:41:14;-3.30;99.90
52209;DHT22;38507;53.132;6.394;2023-03-01T04:43:40;-3.30;99.90
52209;DHT22;38507;53.132;6.394;2023-03-01T04:46:07;-3.30;99.90
52209;DHT22;38507;53.132;6.394;2023-03-01T04:48:35;-3.30;99.90
52209;DHT22;38507;53.132;6.394;2023-03-01T04:51:02;-3.50;99.90
52209;DHT22;38507;53.132;6.394;2023-03-01T04:53:28;-3.30;99.90
52209;DHT22;38507;53.132;6.394;2023-03-01T04:55:55;-3.30;99.90
52209;DHT22;38507;53.132;6.394;2023-03-01T04:58:22;-3.30;99.90
52209;DHT22;38507;53.132;6.394;2023-03-01T05:00:48;-3.40;99.90
52209;DHT22;38507;53.132;6.394;2023-03-01T05:03:14;-3.50;99.90
52209;DHT22;38507;53.132;6.394;2023-03-01T05:05:44;-3.60;99.90
52209;DHT22;38507;53.132;6.394;2023-03-01T05:08:10;-3.50;99.90
52209;DHT22;38507;53.132;6.394;2023-03-01T05:10:45;-3.50;99.90
52209;DHT22;38507;53.132;6.394;2023-03-01T05:13:12;-3.50;99.90
52209;DHT22;38507;53.132;6.394;2023-03-01T05:15:39;-3.50;99.90
52209;DHT22;38507;53.132;6.394;2023-03-01T05:18:05;-3.60;99.90
52209;DHT22;38507;53.132;6.394;2023-03-01T05:20:37;-3.60;99.90
52209;DHT22;38507;53.132;6.394;2023-03-01T05:23:03;-3.60;99.90
52209;DHT22;38507;53.132;6.394;2023-03-01T05:25:32;-3.60;99.90
52209;DHT22;38507;53.132;6.394;2023-03-01T05:28:02;-3.70;99.90
52209;DHT22;38507;53.132;6.394;2023-03-01T05:30:33;-3.60;99.90
52209;DHT22;38507;53.132;6.394;2023-03-01T05:32:59;-3.70;99.90
52209;DHT22;38507;53.132;6.394;2023-03-01T05:35:24;-3.70;99.90
52209;DHT22;38507;53.132;6.394;2023-03-01T05:37:50;-3.90;99.90
52209;DHT22;38507;53.132;6.394;2023-03-01T05:40:20;-3.70;99.90
52209;DHT22;38507;53.132;6.394;2023-03-01T05:42:52;-3.70;99.90
52209;DHT22;38507;53.132;6.394;2023-03-01T05:45:18;-3.70;99.90
52209;DHT22;38507;53.132;6.394;2023-03-01T05:47:46;-3.70;99.90
52209;DHT22;38507;53.132;6.394;2023-03-01T05:52:39;-3.80;99.90
52209;DHT22;38507;53.132;6.394;2023-03-01T05:55:05;-5.00;99.90
52209;DHT22;38507;53.132;6.394;2023-03-01T05:57:31;-3.80;99.90
52209;DHT22;38507;53.132;6.394;2023-03-01T05:59:57;-4.00;99.90
52209;DHT22;38507;53.132;6.394;2023-03-01T06:02:23;-3.90;99.90
52209;DHT22;38507;53.132;6.394;2023-03-01T06:04:48;-4.00;99.90
52209;DHT22;38507;53.132;6.394;2023-03-01T06:07:14;-4.00;99.90
52209;DHT22;38507;53.132;6.394;2023-03-01T06:09:39;-3.90;99.90
52209;DHT22;38507;53.132;6.394;2023-03-01T06:12:05;-3.90;99.90
52209;DHT22;38507;53.132;6.394;2023-03-01T06:14:31;-3.90;99.90
52209;DHT22;38507;53.132;6.394;2023-03-01T06:16:57;-4.10;99.90
52209;DHT22;38507;53.132;6.394;2023-03-01T06:19:23;-4.00;99.90
52209;DHT22;38507;53.132;6.394;2023-03-01T06:21:49;-4.00;99.90
52209;DHT22;38507;53.132;6.394;2023-03-01T06:24:14;-4.00;99.90
52209;DHT22;38507;53.132;6.394;2023-03-01T06:26:40;-4.00;99.90
52209;DHT22;38507;53.132;6.394;2023-03-01T06:29:05;-4.00;99.90
52209;DHT22;38507;53.132;6.394;2023-03-01T06:31:31;-4.00;99.90
52209;DHT22;38507;53.132;6.394;2023-03-01T06:33:57;-4.00;99.90
52209;DHT22;38507;53.132;6.394;2023-03-01T06:36:22;-4.00;99.90
52209;DHT22;38507;53.132;6.394;2023-03-01T06:38:48;-4.00;99.90
52209;DHT22;38507;53.132;6.394;2023-03-01T06:41:14;-4.00;99.90
52209;DHT22;38507;53.132;6.394;2023-03-01T06:43:39;-3.00;99.90
52209;DHT22;38507;53.132;6.394;2023-03-01T06:46:06;-4.00;99.90
52209;DHT22;38507;53.132;6.394;2023-03-01T06:48:33;-3.90;99.90
52209;DHT22;38507;53.132;6.394;2023-03-01T06:51:02;-3.90;99.90
52209;DHT22;38507;53.132;6.394;2023-03-01T06:53:28;-3.80;99.90
52209;DHT22;38507;53.132;6.394;2023-03-01T06:56:01;-4.00;99.90
52209;DHT22;38507;53.132;6.394;2023-03-01T06:58:26;-3.90;99.90
52209;DHT22;38507;53.132;6.394;2023-03-01T07:00:52;-3.90;99.90
52209;DHT22;38507;53.132;6.394;2023-03-01T07:03:18;-3.10;99.90
52209;DHT22;38507;53.132;6.394;2023-03-01T07:05:43;-3.80;99.90
52209;DHT22;38507;53.132;6.394;2023-03-01T07:08:10;-3.80;99.90
52209;DHT22;38507;53.132;6.394;2023-03-01T07:10:36;-3.80;99.90
52209;DHT22;38507;53.132;6.394;2023-03-01T07:13:01;-3.70;99.90
52209;DHT22;38507;53.132;6.394;2023-03-01T07:15:28;-3.70;99.90
52209;DHT22;38507;53.132;6.394;2023-03-01T07:17:53;-3.70;99.90
52209;DHT22;38507;53.132;6.394;2023-03-01T07:20:19;-3.60;99.90
52209;DHT22;38507;53.132;6.394;2023-03-01T07:22:50;-3.60;99.90
52209;DHT22;38507;53.132;6.394;2023-03-01T07:25:16;-3.70;99.90
52209;DHT22;38507;53.132;6.394;2023-03-01T07:27:41;-3.40;99.90
52209;DHT22;38507;53.132;6.394;2023-03-01T07:30:07;-3.50;99.90
52209;DHT22;38507;53.132;6.394;2023-03-01T07:32:33;-3.30;99.90
52209;DHT22;38507;53.132;6.394;2023-03-01T07:34:59;-3.20;99.90
52209;DHT22;38507;53.132;6.394;2023-03-01T07:37:25;-3.30;99.90
52209;DHT22;38507;53.132;6.394;2023-03-01T07:39:50;-3.20;99.90
52209;DHT22;38507;53.132;6.394;2023-03-01T07:42:22;-3.20;99.90
52209;DHT22;38507;53.132;6.394;2023-03-01T07:44:48;-3.10;99.90
52209;DHT22;38507;53.132;6.394;2023-03-01T07:47:13;-3.00;99.90
52209;DHT22;38507;53.132;6.394;2023-03-01T07:49:39;-1.30;99.90
52209;DHT22;38507;53.132;6.394;2023-03-01T07:52:05;-2.80;99.90
52209;DHT22;38507;53.132;6.394;2023-03-01T07:54:30;-2.80;99.90
52209;DHT22;38507;53.132;6.394;2023-03-01T07:56:56;-2.60;99.90
52209;DHT22;38507;53.132;6.394;2023-03-01T07:59:22;-1.30;99.90
52209;DHT22;38507;53.132;6.394;2023-03-01T08:01:55;-3.20;99.90
52209;DHT22;38507;53.132;6.394;2023-03-01T08:04:21;-2.30;99.90
52209;DHT22;38507;53.132;6.394;2023-03-01T08:06:46;-2.10;99.90
52209;DHT22;38507;53.132;6.394;2023-03-01T08:09:13;-2.00;99.90
52209;DHT22;38507;53.132;6.394;2023-03-01T08:11:38;-1.90;99.90
52209;DHT22;38507;53.132;6.394;2023-03-01T08:14:05;-1.70;99.90
52209;DHT22;38507;53.132;6.394;2023-03-01T08:16:31;-1.60;99.90
52209;DHT22;38507;53.132;6.394;2023-03-01T08:18:57;-1.50;99.90
52209;DHT22;38507;53.132;6.394;2023-03-01T08:21:26;-0.20;99.90
52209;DHT22;38507;53.132;6.394;2023-03-01T08:23:52;-1.30;99.90
52209;DHT22;38507;53.132;6.394;2023-03-01T08:26:20;-1.20;99.90
52209;DHT22;38507;53.132;6.394;2023-03-01T08:28:47;-1.10;99.90
52209;DHT22;38507;53.132;6.394;2023-03-01T08:31:33;-1.00;99.90
52209;DHT22;38507;53.132;6.394;2023-03-01T08:34:02;-0.90;99.90
52209;DHT22;38507;53.132;6.394;2023-03-01T08:36:30;-0.70;99.90
52209;DHT22;38507;53.132;6.394;2023-03-01T08:38:56;-0.60;99.90
52209;DHT22;38507;53.132;6.394;2023-03-01T08:41:23;-0.50;99.90
52209;DHT22;38507;53.132;6.394;2023-03-01T08:43:49;-0.40;99.90
52209;DHT22;38507;53.132;6.394;2023-03-01T08:46:15;-0.20;99.90
52209;DHT22;38507;53.132;6.394;2023-03-01T08:48:40;-0.10;99.90
52209;DHT22;38507;53.132;6.394;2023-03-01T08:51:13;0.10;99.90
52209;DHT22;38507;53.132;6.394;2023-03-01T08:53:40;0.30;99.90
52209;DHT22;38507;53.132;6.394;2023-03-01T08:56:07;0.40;99.90
52209;DHT22;38507;53.132;6.394;2023-03-01T08:58:33;0.60;99.90
52209;DHT22;38507;53.132;6.394;2023-03-01T09:00:58;0.80;99.90
52209;DHT22;38507;53.132;6.394;2023-03-01T09:03:24;1.10;99.90
52209;DHT22;38507;53.132;6.394;2023-03-01T09:05:51;1.30;99.90
52209;DHT22;38507;53.132;6.394;2023-03-01T09:08:18;1.50;99.90
52209;DHT22;38507;53.132;6.394;2023-03-01T09:10:44;1.80;99.90
52209;DHT22;38507;53.132;6.394;2023-03-01T09:13:10;2.00;99.90
52209;DHT22;38507;53.132;6.394;2023-03-01T09:15:39;2.30;99.90
52209;DHT22;38507;53.132;6.394;2023-03-01T09:18:05;2.60;99.90
52209;DHT22;38507;53.132;6.394;2023-03-01T09:20:31;3.30;99.90
52209;DHT22;38507;53.132;6.394;2023-03-01T09:22:57;3.10;99.90
52209;DHT22;38507;53.132;6.394;2023-03-01T09:25:23;3.40;99.90
52209;DHT22;38507;53.132;6.394;2023-03-01T09:27:53;3.50;99.90
52209;DHT22;38507;53.132;6.394;2023-03-01T09:30:19;3.80;99.90
52209;DHT22;38507;53.132;6.394;2023-03-01T09:32:45;4.10;99.90
52209;DHT22;38507;53.132;6.394;2023-03-01T09:35:11;4.30;99.90
52209;DHT22;38507;53.132;6.394;2023-03-01T09:37:37;4.60;99.90
52209;DHT22;38507;53.132;6.394;2023-03-01T09:40:05;4.80;99.90
52209;DHT22;38507;53.132;6.394;2023-03-01T09:42:34;5.10;99.90
52209;DHT22;38507;53.132;6.394;2023-03-01T09:45:04;5.30;99.90
52209;DHT22;38507;53.132;6.394;2023-03-01T09:47:35;5.60;99.90
52209;DHT22;38507;53.132;6.394;2023-03-01T09:55:15;6.30;99.90
52209;DHT22;38507;53.132;6.394;2023-03-01T09:57:58;6.50;99.90
52209;DHT22;38507;53.132;6.394;2023-03-01T10:00:41;6.70;99.90
52209;DHT22;38507;53.132;6.394;2023-03-01T10:03:17;7.00;99.90
52209;DHT22;38507;53.132;6.394;2023-03-01T10:09:26;7.30;99.90
52209;DHT22;38507;53.132;6.394;2023-03-01T10:12:12;7.50;99.90
52209;DHT22;38507;53.132;6.394;2023-03-01T10:14:44;7.80;99.90
52209;DHT22;38507;53.132;6.394;2023-03-01T10:17:27;8.00;99.90
52209;DHT22;38507;53.132;6.394;2023-03-01T10:19:55;8.20;99.90
52209;DHT22;38507;53.132;6.394;2023-03-01T10:22:29;8.30;99.90
52209;DHT22;38507;53.132;6.394;2023-03-01T10:25:02;8.50;99.90
52209;DHT22;38507;53.132;6.394;2023-03-01T10:32:38;8.80;99.90
52209;DHT22;38507;53.132;6.394;2023-03-01T10:35:31;9.40;99.90
52209;DHT22;38507;53.132;6.394;2023-03-01T10:38:08;9.20;99.90
52209;DHT22;38507;53.132;6.394;2023-03-01T10:40:35;9.10;99.90
52209;DHT22;38507;53.132;6.394;2023-03-01T10:43:05;9.20;99.90
52209;DHT22;38507;53.132;6.394;2023-03-01T10:45:36;9.70;99.90
52209;DHT22;38507;53.132;6.394;2023-03-01T10:48:22;9.50;99.90
52209;DHT22;38507;53.132;6.394;2023-03-01T10:53:27;9.70;99.90
52209;DHT22;38507;53.132;6.394;2023-03-01T10:56:04;9.80;99.90
52209;DHT22;38507;53.132;6.394;2023-03-01T10:58:31;9.80;99.90
52209;DHT22;38507;53.132;6.394;2023-03-01T11:01:00;10.30;99.90
52209;DHT22;38507;53.132;6.394;2023-03-01T11:03:35;10.00;99.90
52209;DHT22;38507;53.132;6.394;2023-03-01T11:14:12;10.30;99.90
52209;DHT22;38507;53.132;6.394;2023-03-01T11:16:43;10.40;99.90
52209;DHT22;38507;53.132;6.394;2023-03-01T11:24:10;11.30;99.90
52209;DHT22;38507;53.132;6.394;2023-03-01T11:26:39;11.10;99.90
52209;DHT22;38507;53.132;6.394;2023-03-01T11:32:06;10.70;99.90
52209;DHT22;38507;53.132;6.394;2023-03-01T11:34:59;11.10;99.90
52209;DHT22;38507;53.132;6.394;2023-03-01T11:37:52;10.70;99.90
52209;DHT22;38507;53.132;6.394;2023-03-01T11:40:26;10.90;99.90
52209;DHT22;38507;53.132;6.394;2023-03-01T11:43:19;11.00;99.90
52209;DHT22;38507;53.132;6.394;2023-03-01T11:46:31;11.00;99.90
52209;DHT22;38507;53.132;6.394;2023-03-01T11:49:34;11.00;99.90
52209;DHT22;38507;53.132;6.394;2023-03-01T11:57:35;11.20;99.90
52209;DHT22;38507;53.132;6.394;2023-03-01T12:00:33;11.20;99.90
52209;DHT22;38507;53.132;6.394;2023-03-01T12:20:12;11.50;99.90
52209;DHT22;38507;53.132;6.394;2023-03-01T12:25:46;11.50;99.90
52209;DHT22;38507;53.132;6.394;2023-03-01T12:31:16;11.70;99.90
52209;DHT22;38507;53.132;6.394;2023-03-01T12:37:02;11.50;99.90
52209;DHT22;38507;53.132;6.394;2023-03-01T12:44:57;11.70;99.90
52209;DHT22;38507;53.132;6.394;2023-03-01T12:47:54;11.70;99.90
52209;DHT22;38507;53.132;6.394;2023-03-01T12:50:25;11.70;99.90
52209;DHT22;38507;53.132;6.394;2023-03-01T12:52:56;11.90;99.90
52209;DHT22;38507;53.132;6.394;2023-03-01T12:55:29;11.90;99.90
52209;DHT22;38507;53.132;6.394;2023-03-01T13:08:59;11.80;99.90
52209;DHT22;38507;53.132;6.394;2023-03-01T13:11:29;11.80;99.90
52209;DHT22;38507;53.132;6.394;2023-03-01T13:16:45;11.90;99.90
52209;DHT22;38507;53.132;6.394;2023-03-01T13:21:45;12.10;99.90
52209;DHT22;38507;53.132;6.394;2023-03-01T13:29:56;12.30;99.90
52209;DHT22;38507;53.132;6.394;2023-03-01T13:32:30;12.20;99.90
52209;DHT22;38507;53.132;6.394;2023-03-01T13:35:02;12.20;99.90
52209;DHT22;38507;53.132;6.394;2023-03-01T13:37:36;12.60;99.90
52209;DHT22;38507;53.132;6.394;2023-03-01T13:42:53;12.40;99.90
52209;DHT22;38507;53.132;6.394;2023-03-01T13:45:40;12.50;99.90
52209;DHT22;38507;53.132;6.394;2023-03-01T13:48:21;12.40;99.90
52209;DHT22;38507;53.132;6.394;2023-03-01T13:50:53;12.40;99.90
52209;DHT22;38507;53.132;6.394;2023-03-01T13:53:23;12.40;99.90
52209;DHT22;38507;53.132;6.394;2023-03-01T13:55:59;12.50;99.40
52209;DHT22;38507;53.132;6.394;2023-03-01T13:58:31;12.40;99.90
52209;DHT22;38507;53.132;6.394;2023-03-01T14:01:04;12.30;99.90
52209;DHT22;38507;53.132;6.394;2023-03-01T14:03:32;12.30;99.60
52209;DHT22;38507;53.132;6.394;2023-03-01T14:06:03;12.30;99.90
52209;DHT22;38507;53.132;6.394;2023-03-01T14:08:32;12.10;99.90
52209;DHT22;38507;53.132;6.394;2023-03-01T14:19:26;12.20;99.90
52209;DHT22;38507;53.132;6.394;2023-03-01T14:22:23;12.20;99.90
52209;DHT22;38507;53.132;6.394;2023-03-01T14:24:58;12.20;99.90
52209;DHT22;38507;53.132;6.394;2023-03-01T14:27:33;12.10;99.90
52209;DHT22;38507;53.132;6.394;2023-03-01T14:30:03;12.20;99.90
52209;DHT22;38507;53.132;6.394;2023-03-01T14:32:31;12.20;99.90
52209;DHT22;38507;53.132;6.394;2023-03-01T14:34:59;12.10;99.90
52209;DHT22;38507;53.132;6.394;2023-03-01T14:37:31;12.20;99.90
52209;DHT22;38507;53.132;6.394;2023-03-01T14:39:59;12.10;99.90
52209;DHT22;38507;53.132;6.394;2023-03-01T14:42:28;12.00;99.70
52209;DHT22;38507;53.132;6.394;2023-03-01T14:44:55;11.90;99.90
52209;DHT22;38507;53.132;6.394;2023-03-01T14:50:00;11.90;99.90
52209;DHT22;38507;53.132;6.394;2023-03-01T14:52:36;11.90;99.90
52209;DHT22;38507;53.132;6.394;2023-03-01T14:55:05;11.80;99.90
52209;DHT22;38507;53.132;6.394;2023-03-01T14:57:31;11.80;99.90
52209;DHT22;38507;53.132;6.394;2023-03-01T14:59:59;11.70;99.90
52209;DHT22;38507;53.132;6.394;2023-03-01T15:02:30;11.90;99.90
52209;DHT22;38507;53.132;6.394;2023-03-01T15:04:59;11.80;99.90
52209;DHT22;38507;53.132;6.394;2023-03-01T15:07:35;11.70;99.90
52209;DHT22;38507;53.132;6.394;2023-03-01T15:10:04;11.80;99.90
52209;DHT22;38507;53.132;6.394;2023-03-01T15:12:39;11.70;99.90
52209;DHT22;38507;53.132;6.394;2023-03-01T15:15:32;11.50;99.90
52209;DHT22;38507;53.132;6.394;2023-03-01T15:18:04;11.60;99.90
52209;DHT22;38507;53.132;6.394;2023-03-01T15:20:31;11.50;99.90
52209;DHT22;38507;53.132;6.394;2023-03-01T15:23:01;11.50;99.90
52209;DHT22;38507;53.132;6.394;2023-03-01T15:25:29;11.70;99.90
52209;DHT22;38507;53.132;6.394;2023-03-01T15:27:57;11.50;99.90
52209;DHT22;38507;53.132;6.394;2023-03-01T15:30:27;11.20;99.90
52209;DHT22;38507;53.132;6.394;2023-03-01T15:35:50;11.10;99.90
52209;DHT22;38507;53.132;6.394;2023-03-01T15:41:03;11.00;99.90
52209;DHT22;38507;53.132;6.394;2023-03-01T15:43:48;11.00;99.90
52209;DHT22;38507;53.132;6.394;2023-03-01T15:49:01;11.00;99.90
52209;DHT22;38507;53.132;6.394;2023-03-01T15:51:30;11.00;99.90
52209;DHT22;38507;53.132;6.394;2023-03-01T15:53:59;11.10;99.90
52209;DHT22;38507;53.132;6.394;2023-03-01T15:56:25;11.00;99.90
52209;DHT22;38507;53.132;6.394;2023-03-01T15:58:51;11.40;99.90
52209;DHT22;38507;53.132;6.394;2023-03-01T16:01:17;10.80;99.90
52209;DHT22;38507;53.132;6.394;2023-03-01T16:03:43;10.90;99.90
52209;DHT22;38507;53.132;6.394;2023-03-01T16:06:10;10.60;99.90
52209;DHT22;38507;53.132;6.394;2023-03-01T16:08:37;10.40;99.90
52209;DHT22;38507;53.132;6.394;2023-03-01T16:11:09;10.50;99.90
52209;DHT22;38507;53.132;6.394;2023-03-01T16:13:39;10.20;99.90
52209;DHT22;38507;53.132;6.394;2023-03-01T16:16:05;10.80;99.90
52209;DHT22;38507;53.132;6.394;2023-03-01T16:18:30;10.00;99.90
52209;DHT22;38507;53.132;6.394;2023-03-01T16:20:56;9.90;99.90
52209;DHT22;38507;53.132;6.394;2023-03-01T16:23:22;9.80;99.90
52209;DHT22;38507;53.132;6.394;2023-03-01T16:25:50;9.60;99.90
52209;DHT22;38507;53.132;6.394;2023-03-01T16:28:15;10.10;99.90
52209;DHT22;38507;53.132;6.394;2023-03-01T16:30:46;9.40;99.90
52209;DHT22;38507;53.132;6.394;2023-03-01T16:33:12;9.50;99.90
52209;DHT22;38507;53.132;6.394;2023-03-01T16:35:41;9.30;99.90
52209;DHT22;38507;53.132;6.394;2023-03-01T16:38:07;9.30;99.90
52209;DHT22;38507;53.132;6.394;2023-03-01T16:40:32;9.40;99.90
52209;DHT22;38507;53.132;6.394;2023-03-01T16:42:58;9.70;99.90
52209;DHT22;38507;53.132;6.394;2023-03-01T16:45:32;9.90;99.90
52209;DHT22;38507;53.132;6.394;2023-03-01T16:47:58;9.70;99.90
52209;DHT22;38507;53.132;6.394;2023-03-01T16:50:24;9.50;99.90
52209;DHT22;38507;53.132;6.394;2023-03-01T16:52:50;9.80;99.90
52209;DHT22;38507;53.132;6.394;2023-03-01T16:55:16;9.70;99.90
52209;DHT22;38507;53.132;6.394;2023-03-01T16:57:42;9.00;99.90
52209;DHT22;38507;53.132;6.394;2023-03-01T17:00:09;8.80;99.90
52209;DHT22;38507;53.132;6.394;2023-03-01T17:02:35;8.50;99.90
52209;DHT22;38507;53.132;6.394;2023-03-01T17:05:02;8.40;99.90
52209;DHT22;38507;53.132;6.394;2023-03-01T17:07:31;8.20;99.90
52209;DHT22;38507;53.132;6.394;2023-03-01T17:10:01;8.10;99.90
52209;DHT22;38507;53.132;6.394;2023-03-01T17:12:26;7.90;99.90
52209;DHT22;38507;53.132;6.394;2023-03-01T17:14:53;7.70;99.90
52209;DHT22;38507;53.132;6.394;2023-03-01T17:17:19;7.60;99.90
52209;DHT22;38507;53.132;6.394;2023-03-01T17:19:44;7.30;99.90
52209;DHT22;38507;53.132;6.394;2023-03-01T17:22:11;7.30;99.90
52209;DHT22;38507;53.132;6.394;2023-03-01T17:24:39;7.10;99.90
52209;DHT22;38507;53.132;6.394;2023-03-01T17:27:06;7.00;99.90
52209;DHT22;38507;53.132;6.394;2023-03-01T17:29:32;6.90;99.90
52209;DHT22;38507;53.132;6.394;2023-03-01T17:31:58;6.80;99.90
52209;DHT22;38507;53.132;6.394;2023-03-01T17:34:23;6.70;99.90
52209;DHT22;38507;53.132;6.394;2023-03-01T17:36:50;6.60;99.90
52209;DHT22;38507;53.132;6.394;2023-03-01T17:39:17;6.60;99.90
52209;DHT22;38507;53.132;6.394;2023-03-01T17:41:45;6.40;99.90
52209;DHT22;38507;53.132;6.394;2023-03-01T17:44:11;6.40;99.90
52209;DHT22;38507;53.132;6.394;2023-03-01T17:46:37;6.30;99.90
52209;DHT22;38507;53.132;6.394;2023-03-01T17:49:02;6.20;99.90
52209;DHT22;38507;53.132;6.394;2023-03-01T17:51:28;6.60;99.90
52209;DHT22;38507;53.132;6.394;2023-03-01T17:53:54;6.00;99.90